Time;durP1;ratioP1;P1;durP2;ratioP2;P2;SDS_P1;SDS_P2;PMS_P1;PMS_P2;Temp;Humidity;BMP_temperature;BMP_pressure;BME280_temperature;BME280_humidity;BME280_pressure;Samples;Min_cycle;Max_cycle;Signal;HPM_P1;HPM_P2
2024/02/03 00:00:06;;;;;;;16.33;3.65;;;;;;;-146.27;92.43;41271.63;5058514;28;20056;-73
2024/02/03 00:02:31;;;;;;;13.20;3.45;;;;;;;-146.27;92.42;41219.94;5058740;28;20025;-73
2024/02/03 00:04:57;;;;;;;14.50;3.13;;;;;;;-146.27;90.94;41267.66;5066741;28;20079;-72
2024/02/03 00:07:22;;;;;;;13.27;3.65;;;;;;;-146.27;90.80;41291.50;5067962;28;20495;-73
2024/02/03 00:09:48;;;;;;;23.58;3.95;;;;;;;-146.27;90.17;41269.63;5067958;28;20031;-72
2024/02/03 00:12:13;;;;;;;7.65;3.05;;;;;;;-146.27;90.03;41277.59;5069116;28;20032;-74
2024/02/03 00:14:39;;;;;;;16.58;3.20;;;;;;;-146.27;89.85;41343.19;5067519;28;20032;-73
2024/02/03 00:17:04;;;;;;;22.25;3.33;;;;;;;-146.27;89.29;41287.53;5067893;28;20024;-72
2024/02/03 00:19:30;;;;;;;13.27;2.70;;;;;;;-146.27;90.12;41351.16;5062401;28;20020;-73
2024/02/03 00:21:56;;;;;;;14.88;3.45;;;;;;;-146.27;90.55;41265.66;5065921;28;20032;-73
2024/02/03 00:24:22;;;;;;;14.55;3.47;;;;;;;-146.27;90.70;41321.31;5063735;28;20036;-73
2024/02/03 00:26:47;;;;;;;20.23;3.55;;;;;;;-146.27;90.58;41355.13;5060552;28;20029;-74
2024/02/03 00:29:12;;;;;;;11.45;3.05;;;;;;;-146.27;92.15;41303.44;5065179;28;20021;-71
2024/02/03 00:31:38;;;;;;;12.63;2.95;;;;;;;-146.27;91.20;41277.59;5065487;28;20056;-73
2024/02/03 00:34:03;;;;;;;12.30;3.20;;;;;;;-146.27;90.42;41279.56;5053334;28;20086;-74
2024/02/03 00:36:29;;;;;;;8.60;3.10;;;;;;;-146.27;90.42;41273.59;5061910;28;20028;-73
2024/02/03 00:38:54;;;;;;;21.65;3.20;;;;;;;-146.27;90.42;41335.25;5065548;28;20028;-74
2024/02/03 00:41:19;;;;;;;19.13;3.33;;;;;;;-146.27;90.40;41390.91;5066579;28;20039;-72
2024/02/03 00:43:45;;;;;;;11.43;2.97;;;;;;;-146.27;91.74;41378.97;5059308;28;20020;-74
2024/02/03 00:46:11;;;;;;;13.23;3.03;;;;;;;-146.27;90.36;41283.56;5068728;28;20020;-73
2024/02/03 00:48:37;;;;;;;10.65;2.30;;;;;;;-146.27;89.78;41351.16;5065225;28;20031;-73
2024/02/03 00:51:09;;;;;;;11.90;2.88;;;;;;;-146.27;90.30;41331.25;5064919;28;20032;-73
2024/02/03 00:53:35;;;;;;;13.73;3.13;;;;;;;-146.27;90.61;41367.06;5063982;28;20028;-73
2024/02/03 00:56:01;;;;;;;11.57;2.88;;;;;;;-146.27;91.12;41309.41;5067942;28;20205;-74
2024/02/03 00:58:26;;;;;;;12.18;2.55;;;;;;;-146.27;89.83;41255.72;5065020;28;20029;-73
2024/02/03 01:00:52;;;;;;;12.48;3.00;;;;;;;-146.27;89.94;41355.13;5066333;28;20036;-72
2024/02/03 01:03:17;;;;;;;11.88;2.38;;;;;;;-146.27;89.18;41331.25;5067950;28;20036;-72
2024/02/03 01:05:43;;;;;;;9.85;2.72;;;;;;;-146.27;89.92;41299.47;5067761;28;20094;-72
2024/02/03 01:08:09;;;;;;;14.07;3.10;;;;;;;-146.27;90.19;41341.22;5067522;28;20039;-73
2024/02/03 01:10:34;;;;;;;12.80;2.55;;;;;;;-146.27;89.57;41359.09;5055588;28;20025;-72
2024/02/03 01:13:00;;;;;;;7.75;2.53;;;;;;;-146.27;89.95;41293.50;5062365;28;20024;-73
2024/02/03 01:15:25;;;;;;;11.50;2.80;;;;;;;-146.27;90.23;41359.09;5066874;28;20028;-73
2024/02/03 01:17:50;;;;;;;7.95;2.35;;;;;;;-146.27;89.76;41291.50;5068161;28;20082;-73
2024/02/03 01:20:16;;;;;;;10.43;2.17;;;;;;;-146.27;88.92;41319.34;5064462;28;20024;-73
2024/02/03 01:22:41;;;;;;;16.38;2.70;;;;;;;-146.27;88.65;41371.03;5068333;28;20024;-72
2024/02/03 01:25:07;;;;;;;16.67;3.08;;;;;;;-146.27;89.49;41343.19;5059900;28;20036;-71
2024/02/03 01:27:32;;;;;;;12.93;2.78;;;;;;;-146.27;88.51;41301.44;5062302;28;20016;-72
2024/02/03 01:29:58;;;;;;;20.67;2.95;;;;;;;-146.27;89.50;41422.72;5062618;28;20033;-73
2024/02/03 01:32:23;;;;;;;10.45;1.85;;;;;;;-146.27;89.80;41367.06;5053469;28;20032;-72
2024/02/03 01:34:49;;;;;;;13.15;2.40;;;;;;;-146.27;89.45;41345.19;5066385;28;20039;-72
2024/02/03 01:37:14;;;;;;;12.00;2.55;;;;;;;-146.27;89.11;41353.13;5065493;28;20021;-71
2024/02/03 01:39:41;;;;;;;8.65;2.30;;;;;;;-146.27;88.94;41323.31;5056014;28;20657;-73
2024/02/03 01:42:07;;;;;;;9.70;2.33;;;;;;;-146.27;88.46;41307.41;5069863;28;20053;-72
2024/02/03 01:44:33;;;;;;;11.82;2.10;;;;;;;-146.27;89.88;41335.25;5068565;28;20025;-73
2024/02/03 01:47:01;;;;;;;9.15;2.05;;;;;;;-146.27;89.38;41394.88;5070076;28;20035;-72
2024/02/03 01:49:30;;;;;;;12.82;2.10;;;;;;;-146.27;89.16;41327.28;5064846;28;20099;-72
2024/02/03 01:51:57;;;;;;;15.02;2.30;;;;;;;-146.27;89.40;41418.75;5068995;28;20036;-71
2024/02/03 01:54:23;;;;;;;10.30;2.35;;;;;;;-146.27;89.91;41398.88;5063187;28;20078;-73
2024/02/03 01:56:51;;;;;;;14.38;2.40;;;;;;;-146.27;88.57;41347.16;5068558;28;20041;-73
2024/02/03 01:59:16;;;;;;;15.77;1.92;;;;;;;-146.27;89.94;41418.75;5066930;28;20028;-73
2024/02/03 02:01:42;;;;;;;11.82;2.92;;;;;;;-146.27;88.40;41378.97;5065030;28;20058;-73
2024/02/03 02:04:08;;;;;;;12.65;1.88;;;;;;;-146.27;88.73;41418.75;5071224;28;20036;-72
2024/02/03 02:06:33;;;;;;;11.88;1.75;;;;;;;-146.27;88.05;41380.97;5069596;28;20362;-72
2024/02/03 02:08:59;;;;;;;10.40;2.35;;;;;;;-146.27;88.36;41442.59;5069671;28;20035;-73
2024/02/03 02:11:24;;;;;;;11.20;2.20;;;;;;;-146.27;89.10;41450.56;5071722;28;20028;-73
2024/02/03 02:13:50;;;;;;;10.80;1.52;;;;;;;-146.27;87.45;41418.75;5071688;28;20527;-73
2024/02/03 02:16:15;;;;;;;14.95;3.20;;;;;;;-146.27;88.21;41468.44;5071588;28;20049;-73
2024/02/03 02:18:41;;;;;;;11.35;1.92;;;;;;;-146.27;87.43;41462.50;5070278;28;20021;-72
2024/02/03 02:21:06;;;;;;;10.35;2.22;;;;;;;-146.27;88.53;41394.88;5068804;28;20025;-72
2024/02/03 02:23:32;;;;;;;9.80;2.33;;;;;;;-146.27;88.72;41470.44;5069769;28;20027;-73
2024/02/03 02:25:57;;;;;;;11.10;1.67;;;;;;;-146.27;87.78;41396.88;5071941;28;20028;-73
2024/02/03 02:28:24;;;;;;;13.60;1.85;;;;;;;-146.27;88.12;41474.41;5071424;28;20016;-73
2024/02/03 02:30:49;;;;;;;9.38;2.05;;;;;;;-146.27;88.21;41452.53;5067980;28;20113;-73
2024/02/03 02:33:15;;;;;;;9.73;1.73;;;;;;;-146.27;86.99;41430.69;5070184;28;20142;-71
2024/02/03 02:35:41;;;;;;;13.48;2.45;;;;;;;-146.27;88.16;41518.16;5064217;28;20043;-72
2024/02/03 02:38:06;;;;;;;11.52;2.72;;;;;;;-146.27;88.90;41516.16;5069636;28;20441;-73
2024/02/03 02:40:31;;;;;;;11.57;1.85;;;;;;;-146.27;88.40;41506.22;5070045;28;20020;-73
2024/02/03 02:42:57;;;;;;;15.80;2.00;;;;;;;-146.27;88.05;41434.66;5069555;28;20028;-73
2024/02/03 02:45:22;;;;;;;19.77;3.80;;;;;;;-146.27;87.16;41450.56;5063759;28;20028;-73
2024/02/03 02:47:47;;;;;;;9.07;1.73;;;;;;;-146.27;87.35;41472.44;5071358;28;20050;-73
2024/02/03 02:50:13;;;;;;;13.55;2.45;;;;;;;-146.27;87.96;41546.00;5057562;28;20020;-74
2024/02/03 02:52:38;;;;;;;12.52;3.00;;;;;;;-146.27;87.51;41458.50;5064620;28;20548;-73
2024/02/03 02:55:04;;;;;;;14.43;2.35;;;;;;;-146.27;88.39;41516.16;5068977;28;20032;-73
2024/02/03 02:57:30;;;;;;;12.52;2.05;;;;;;;-146.27;87.78;41488.34;5065284;28;20077;-73
2024/02/03 02:59:55;;;;;;;9.82;2.13;;;;;;;-146.27;87.33;41486.34;5059789;28;20032;-73
2024/02/03 03:02:20;;;;;;;10.38;1.45;;;;;;;-146.27;87.72;41470.44;5066866;28;20194;-72
2024/02/03 03:04:46;;;;;;;10.75;1.83;;;;;;;-146.27;88.04;41530.09;5062025;28;20033;-73
2024/02/03 03:07:15;;;;;;;13.57;2.55;;;;;;;-146.27;87.74;41474.41;5062899;28;20021;-72
2024/02/03 03:09:42;;;;;;;16.13;2.28;;;;;;;-146.27;86.82;41468.44;5068812;28;20651;-72
2024/02/03 03:12:09;;;;;;;15.93;2.75;;;;;;;-146.27;86.71;41458.50;5067011;28;20100;-73
2024/02/03 03:14:34;;;;;;;10.20;1.85;;;;;;;-146.27;87.00;41458.50;5065074;28;20040;-73
2024/02/03 03:17:00;;;;;;;10.75;1.95;;;;;;;-146.27;86.99;41502.25;5060447;28;20046;-73
2024/02/03 03:19:25;;;;;;;10.45;1.40;;;;;;;-146.27;87.83;41472.44;5060876;28;20028;-73
2024/02/03 03:21:51;;;;;;;9.88;1.85;;;;;;;-146.27;87.38;41450.56;5067108;28;20073;-73
2024/02/03 03:24:16;;;;;;;11.13;1.67;;;;;;;-146.27;87.95;41478.41;5066732;28;20024;-73
2024/02/03 03:26:45;;;;;;;12.38;1.67;;;;;;;-146.27;87.53;41446.59;5066971;28;20028;-73
2024/02/03 03:29:11;;;;;;;6.65;1.80;;;;;;;-146.27;86.93;41470.44;5066606;28;20028;-73
2024/02/03 03:31:38;;;;;;;13.50;1.95;;;;;;;-146.27;87.29;41522.13;5066449;28;20060;-73
2024/02/03 03:34:03;;;;;;;15.65;2.60;;;;;;;-146.27;87.55;41438.63;5054061;28;20566;-73
2024/02/03 03:36:28;;;;;;;11.68;1.85;;;;;;;-146.27;87.92;41500.25;5058497;28;20028;-73
2024/02/03 03:38:54;;;;;;;11.45;1.80;;;;;;;-146.27;87.32;41498.28;5060464;28;20082;-73
2024/02/03 03:41:19;;;;;;;8.95;1.73;;;;;;;-146.27;87.32;41448.56;5068895;28;20111;-72
2024/02/03 03:43:47;;;;;;;7.00;1.83;;;;;;;-146.27;86.86;41498.28;5069013;28;20122;-73
2024/02/03 03:46:12;;;;;;;7.97;2.17;;;;;;;-146.27;86.57;41482.38;5069742;28;20031;-73
2024/02/03 03:48:38;;;;;;;8.85;1.58;;;;;;;-146.27;87.05;41472.44;5064712;28;20021;-73
2024/02/03 03:51:03;;;;;;;11.48;1.70;;;;;;;-146.27;86.83;41438.63;5067153;28;20040;-73
2024/02/03 03:53:28;;;;;;;15.88;1.83;;;;;;;-146.27;86.27;41440.63;5060076;28;20039;-73
2024/02/03 03:55:54;;;;;;;8.15;1.95;;;;;;;-146.27;88.02;41557.94;5068045;28;20062;-73
2024/02/03 03:58:19;;;;;;;9.77;1.63;;;;;;;-146.27;87.02;41434.66;5064847;28;20033;-73
2024/02/03 04:00:45;;;;;;;11.25;2.42;;;;;;;-146.27;87.60;41498.28;5067575;28;20047;-73
2024/02/03 04:03:10;;;;;;;10.52;2.13;;;;;;;-146.27;87.48;41514.19;5066127;28;20069;-73
2024/02/03 04:05:35;;;;;;;14.75;2.22;;;;;;;-146.27;86.79;41450.56;5064353;28;20078;-73
2024/02/03 04:08:03;;;;;;;9.38;1.30;;;;;;;-146.27;87.06;41468.44;5065897;28;20173;-74
2024/02/03 04:10:29;;;;;;;13.77;2.30;;;;;;;-146.27;87.75;41462.50;5068835;28;20036;-74
2024/02/03 04:12:54;;;;;;;10.65;2.15;;;;;;;-146.27;87.64;41494.31;5068512;28;20316;-73
2024/02/03 04:15:19;;;;;;;15.38;2.95;;;;;;;-146.27;88.09;41482.38;5066872;28;20111;-73
2024/02/03 04:17:45;;;;;;;21.10;2.28;;;;;;;-146.27;86.78;41470.44;5068404;28;20124;-73
2024/02/03 04:20:10;;;;;;;13.48;2.10;;;;;;;-146.27;88.29;41514.19;5061457;28;20189;-74
2024/02/03 04:22:35;;;;;;;20.80;2.92;;;;;;;-146.27;87.52;41490.31;5068209;28;20032;-73
2024/02/03 04:25:01;;;;;;;14.95;2.55;;;;;;;-146.27;87.46;41500.25;5068070;28;20028;-74
2024/02/03 04:27:26;;;;;;;13.10;2.30;;;;;;;-146.27;87.45;41508.22;5068097;28;20491;-73
2024/02/03 04:29:51;;;;;;;9.85;2.15;;;;;;;-146.27;87.66;41484.34;5068696;28;20111;-73
2024/02/03 04:32:17;;;;;;;13.60;2.15;;;;;;;-146.27;88.57;41486.34;5066003;28;20043;-74
2024/02/03 04:34:42;;;;;;;15.13;2.10;;;;;;;-146.27;88.37;41494.31;5058652;28;20033;-73
2024/02/03 04:37:08;;;;;;;12.02;1.75;;;;;;;-146.27;88.84;41514.19;5063509;28;20067;-73
2024/02/03 04:39:33;;;;;;;12.20;1.75;;;;;;;-146.27;88.16;41510.22;5058347;28;20020;-73
2024/02/03 04:41:59;;;;;;;12.63;2.10;;;;;;;-146.27;88.71;41434.66;5069084;28;20044;-73
2024/02/03 04:44:24;;;;;;;16.75;2.08;;;;;;;-146.27;88.10;41530.09;5062940;28;20028;-73
2024/02/03 04:46:50;;;;;;;11.98;1.60;;;;;;;-146.27;88.10;41520.16;5069258;28;20510;-72
2024/02/03 04:49:15;;;;;;;14.32;2.38;;;;;;;-146.27;87.59;41504.25;5061927;28;20043;-73
2024/02/03 04:51:40;;;;;;;14.82;2.38;;;;;;;-146.27;87.98;41518.16;5068868;28;20439;-73
2024/02/03 04:54:06;;;;;;;9.45;1.70;;;;;;;-146.27;88.92;41561.91;5064103;28;20491;-73
2024/02/03 04:56:31;;;;;;;11.90;2.00;;;;;;;-146.27;88.89;41504.25;5061020;28;20062;-73
2024/02/03 04:58:56;;;;;;;11.50;2.63;;;;;;;-146.27;89.28;41569.84;5066887;28;20043;-73
2024/02/03 05:01:22;;;;;;;8.77;2.22;;;;;;;-146.27;89.24;41506.22;5064028;28;20476;-73
2024/02/03 05:03:47;;;;;;;9.73;2.42;;;;;;;-146.27;88.95;41472.44;5066061;28;20028;-73
2024/02/03 05:06:13;;;;;;;10.73;2.03;;;;;;;-146.27;88.77;41538.03;5068820;28;20074;-73
2024/02/03 05:08:38;;;;;;;18.90;2.30;;;;;;;-146.27;87.80;41514.19;5064381;28;20591;-73
2024/02/03 05:11:04;;;;;;;10.13;2.80;;;;;;;-146.27;89.22;41504.25;5059998;28;20029;-73
2024/02/03 05:13:29;;;;;;;16.63;2.60;;;;;;;-146.27;88.25;41474.41;5054485;28;20471;-73
2024/02/03 05:15:54;;;;;;;15.68;2.42;;;;;;;-146.27;88.89;41474.41;5056390;28;20066;-73
2024/02/03 05:18:21;;;;;;;8.10;2.17;;;;;;;-146.27;90.26;41512.19;5064798;28;20308;-72
2024/02/03 05:20:47;;;;;;;17.13;2.55;;;;;;;-146.27;89.19;41490.31;5065159;28;20029;-73
2024/02/03 05:23:12;;;;;;;14.45;2.17;;;;;;;-146.27;88.24;41480.38;5068976;28;20074;-73
2024/02/03 05:25:37;;;;;;;19.27;2.78;;;;;;;-146.27;89.68;41494.31;5069260;28;20021;-73
2024/02/03 05:28:03;;;;;;;13.98;2.65;;;;;;;-146.27;89.31;41414.78;5072318;28;20407;-73
2024/02/03 05:30:28;;;;;;;12.80;2.03;;;;;;;-146.27;88.43;41458.50;5071270;28;20113;-72
2024/02/03 05:32:54;;;;;;;14.68;1.98;;;;;;;-146.27;88.69;41454.53;5071764;28;20032;-74
2024/02/03 05:35:19;;;;;;;9.43;2.08;;;;;;;-146.27;88.36;41396.88;5072177;28;20024;-73
2024/02/03 05:37:44;;;;;;;10.85;1.95;;;;;;;-146.27;88.30;41571.84;5070669;28;20392;-73
2024/02/03 05:40:10;;;;;;;13.90;2.22;;;;;;;-146.27;89.64;41478.41;5069396;28;20012;-74
2024/02/03 05:42:35;;;;;;;12.13;2.17;;;;;;;-146.27;89.50;41540.03;5062020;28;21216;-73
2024/02/03 05:45:01;;;;;;;10.15;1.85;;;;;;;-146.27;88.30;41474.41;5069808;28;20048;-73
2024/02/03 05:47:26;;;;;;;11.30;2.28;;;;;;;-146.27;89.19;41446.59;5068779;28;20603;-73
2024/02/03 05:49:53;;;;;;;8.50;2.05;;;;;;;-146.27;90.16;41442.59;5061774;28;20040;-73
2024/02/03 05:52:18;;;;;;;15.82;2.22;;;;;;;-146.27;89.34;41448.56;5071410;28;20021;-73
2024/02/03 05:54:43;;;;;;;7.50;1.67;;;;;;;-146.27;88.71;41386.94;5068574;28;20058;-73
2024/02/03 05:57:13;;;;;;;7.93;1.92;;;;;;;-146.27;89.83;41474.41;5069321;28;20043;-73
2024/02/03 05:59:43;;;;;;;14.20;2.20;;;;;;;-146.27;89.51;41378.97;5070666;28;20039;-72
2024/02/03 06:02:08;;;;;;;9.52;2.05;;;;;;;-146.27;88.64;41382.97;5060213;28;20025;-73
2024/02/03 06:04:34;;;;;;;9.63;2.25;;;;;;;-146.27;89.75;41418.75;5064177;28;20035;-73
2024/02/03 06:06:59;;;;;;;12.85;1.65;;;;;;;-146.27;89.35;41412.78;5067257;28;20032;-73
2024/02/03 06:09:25;;;;;;;10.80;2.97;;;;;;;-146.27;90.40;41442.59;5070639;28;20024;-72
2024/02/03 06:11:51;;;;;;;11.77;1.98;;;;;;;-146.27;89.78;41394.88;5063006;28;20036;-73
2024/02/03 06:14:17;;;;;;;7.32;2.15;;;;;;;-146.27;89.48;41371.03;5053499;28;20029;-73
2024/02/03 06:16:43;;;;;;;12.52;2.03;;;;;;;-146.27;89.10;41386.94;5071512;28;20028;-73
2024/02/03 06:19:08;;;;;;;11.93;3.08;;;;;;;-146.27;88.65;41351.16;5058031;28;20086;-72
2024/02/03 06:21:33;;;;;;;10.52;2.10;;;;;;;-146.27;89.67;41367.06;5057616;28;20029;-73
2024/02/03 06:23:59;;;;;;;8.85;2.22;;;;;;;-146.27;89.72;41333.25;5068469;28;20032;-73
2024/02/03 06:26:30;;;;;;;15.88;3.85;;;;;;;-146.27;89.86;41361.09;5068890;28;20051;-73
2024/02/03 06:28:55;;;;;;;16.77;2.38;;;;;;;-146.27;89.48;41375.00;5068062;28;20024;-73
2024/02/03 06:31:20;;;;;;;10.45;2.40;;;;;;;-146.27;89.13;41317.34;5070747;28;20396;-73
2024/02/03 06:33:46;;;;;;;12.40;1.73;;;;;;;-146.27;89.24;41329.28;5062519;28;20491;-73
2024/02/03 06:36:11;;;;;;;7.80;1.83;;;;;;;-146.27;89.53;41367.06;5073854;28;20135;-73
2024/02/03 06:38:36;;;;;;;11.82;2.22;;;;;;;-146.27;89.80;41329.28;5061877;28;20047;-73
2024/02/03 06:41:02;;;;;;;6.78;1.60;;;;;;;-146.27;90.24;41335.25;5067389;28;20668;-73
2024/02/03 06:43:27;;;;;;;8.27;2.00;;;;;;;-146.27;89.48;41343.19;5060993;28;20378;-73
2024/02/03 06:45:53;;;;;;;13.80;1.80;;;;;;;-146.27;89.02;41331.25;5066808;28;20145;-73
2024/02/03 06:48:19;;;;;;;10.10;1.90;;;;;;;-146.27;89.93;41347.16;5068500;28;20055;-73
2024/02/03 06:50:44;;;;;;;12.23;2.08;;;;;;;-146.27;89.62;41398.88;5066981;28;20032;-73
2024/02/03 06:53:10;;;;;;;9.75;1.90;;;;;;;-146.27;90.36;41331.25;5066991;28;20048;-75
2024/02/03 06:55:36;;;;;;;12.82;2.05;;;;;;;-146.27;89.62;41373.03;5065842;28;20103;-74
2024/02/03 06:58:02;;;;;;;9.30;1.33;;;;;;;-146.27;89.56;41263.66;5068138;28;20024;-74
2024/02/03 07:00:27;;;;;;;14.32;2.28;;;;;;;-146.27;89.41;41299.47;5062518;28;20332;-73
2024/02/03 07:02:53;;;;;;;12.73;2.15;;;;;;;-146.27;89.78;41359.09;5065010;28;20090;-75
2024/02/03 07:05:18;;;;;;;10.05;1.77;;;;;;;-146.27;90.10;41295.47;5065654;28;20025;-73
2024/02/03 07:07:43;;;;;;;9.45;1.88;;;;;;;-146.27;90.24;41357.13;5067549;28;20103;-73
2024/02/03 07:10:09;;;;;;;4.75;1.90;;;;;;;-146.27;90.34;41307.41;5069400;28;20028;-73
2024/02/03 07:12:34;;;;;;;7.82;1.85;;;;;;;-146.27;89.80;41305.41;5072931;28;20025;-73
2024/02/03 07:14:59;;;;;;;10.13;1.83;;;;;;;-146.27;89.28;41275.59;5063853;28;20324;-73
2024/02/03 07:17:25;;;;;;;8.77;1.73;;;;;;;-146.27;90.21;41347.16;5054455;28;20024;-73
2024/02/03 07:19:50;;;;;;;7.28;1.92;;;;;;;-146.27;89.94;41343.19;5071356;28;20020;-73
2024/02/03 07:22:16;;;;;;;10.55;1.80;;;;;;;-146.27;89.48;41357.13;5071771;28;20033;-72
2024/02/03 07:24:41;;;;;;;10.05;2.15;;;;;;;-146.27;89.24;41315.38;5070698;28;20063;-72
2024/02/03 07:27:06;;;;;;;8.68;1.52;;;;;;;-146.27;89.88;41357.13;5070434;28;20460;-72
2024/02/03 07:29:32;;;;;;;9.80;2.17;;;;;;;-146.27;89.56;41367.06;5070097;28;20024;-74
2024/02/03 07:31:59;;;;;;;6.35;1.50;;;;;;;-146.27;88.74;41337.22;5070051;28;20041;-73
2024/02/03 07:34:25;;;;;;;13.85;1.80;;;;;;;-146.27;89.03;41398.88;5069601;28;20029;-73
2024/02/03 07:36:50;;;;;;;13.05;1.77;;;;;;;-146.27;89.05;41349.16;5070419;28;20036;-76
2024/02/03 07:39:15;;;;;;;7.30;1.67;;;;;;;-146.27;89.21;41347.16;5069891;28;20643;-74
2024/02/03 07:41:41;;;;;;;11.55;1.95;;;;;;;-146.27;89.45;41406.81;5071811;28;20082;-74
2024/02/03 07:44:06;;;;;;;9.10;1.60;;;;;;;-146.27;89.00;41347.16;5069270;28;20025;-74
2024/02/03 07:46:31;;;;;;;10.90;1.50;;;;;;;-146.27;89.25;41402.84;5070326;28;20035;-74
2024/02/03 07:48:57;;;;;;;8.85;2.40;;;;;;;-146.27;90.29;41456.53;5070628;28;20122;-74
2024/02/03 07:51:22;;;;;;;4.55;1.80;;;;;;;-146.27;88.94;41406.81;5068142;28;20025;-73
2024/02/03 07:53:47;;;;;;;11.15;2.00;;;;;;;-146.27;88.86;41490.31;5070396;28;20028;-73
2024/02/03 07:56:13;;;;;;;9.57;1.58;;;;;;;-146.27;89.17;41534.06;5070843;28;20029;-73
2024/02/03 07:58:38;;;;;;;11.07;2.00;;;;;;;-146.27;89.71;41526.13;5070301;28;20032;-73
2024/02/03 08:01:04;;;;;;;9.25;2.17;;;;;;;-146.27;89.12;41510.22;5069017;28;20416;-73
2024/02/03 08:03:29;;;;;;;8.05;1.83;;;;;;;-146.27;90.36;41627.50;5068612;28;20111;-72
2024/02/03 08:05:54;;;;;;;9.43;1.92;;;;;;;-146.27;89.67;41589.75;5070463;28;20055;-73
2024/02/03 08:08:19;;;;;;;9.75;1.75;;;;;;;-146.27;89.74;41621.56;5069076;28;20023;-73
2024/02/03 08:10:45;;;;;;;15.57;1.80;;;;;;;-146.27;88.94;41633.47;5082319;28;20032;-73
2024/02/03 08:13:11;;;;;;;13.60;2.65;;;;;;;-146.27;89.53;41637.47;5073101;28;20028;-73
2024/02/03 08:15:36;;;;;;;10.20;2.97;;;;;;;-146.27;89.82;41661.31;5069934;28;20659;-73
2024/02/03 08:18:03;;;;;;;16.83;2.05;;;;;;;-146.27;89.18;41669.28;5070073;28;20028;-73
2024/02/03 08:20:28;;;;;;;8.57;2.55;;;;;;;-146.27;90.01;41713.00;5069987;28;20095;-73
2024/02/03 08:22:53;;;;;;;12.35;2.28;;;;;;;-146.27;89.14;41693.13;5069035;28;20143;-72
2024/02/03 08:25:19;;;;;;;9.77;2.30;;;;;;;-146.27;89.28;41760.72;5067227;28;20051;-73
2024/02/03 08:27:44;;;;;;;9.77;2.33;;;;;;;-146.27;88.11;41717.00;5067839;28;20085;-73
2024/02/03 08:30:10;;;;;;;9.93;2.28;;;;;;;-146.27;88.27;41748.81;5069364;28;20038;-73
2024/02/03 08:32:36;;;;;;;7.60;1.60;;;;;;;-146.27;87.78;41720.97;5069637;28;20064;-72
2024/02/03 08:35:01;;;;;;;11.65;2.08;;;;;;;-146.27;88.94;41796.53;5070001;28;20063;-72
2024/02/03 08:37:26;;;;;;;5.53;1.73;;;;;;;-146.27;87.79;41746.81;5069857;28;20035;-73
2024/02/03 08:39:52;;;;;;;4.70;1.50;;;;;;;-146.27;87.47;41884.00;5069095;28;20028;-73
2024/02/03 08:42:19;;;;;;;12.43;2.13;;;;;;;-146.27;87.53;41844.25;5069043;28;20041;-72
2024/02/03 08:44:44;;;;;;;8.25;1.80;;;;;;;-146.27;86.97;41848.22;5069993;28;20023;-73
2024/02/03 08:47:10;;;;;;;11.55;2.25;;;;;;;-146.27;87.57;41909.88;5068905;28;20464;-72
2024/02/03 08:49:35;;;;;;;13.75;2.00;;;;;;;-146.27;86.43;41836.28;5066019;28;20385;-73
2024/02/03 08:52:00;;;;;;;7.10;1.40;;;;;;;-146.27;86.74;41888.00;5066214;28;20044;-73
2024/02/03 08:54:26;;;;;;;7.75;1.65;;;;;;;-146.27;88.29;41919.81;5067573;28;20026;-72
2024/02/03 08:56:51;;;;;;;8.85;1.95;;;;;;;-146.27;88.06;41866.13;5074739;28;20036;-73
2024/02/03 08:59:16;;;;;;;7.32;1.60;;;;;;;-146.27;87.54;41824.38;5070113;28;20093;-71
2024/02/03 09:01:42;;;;;;;11.82;1.73;;;;;;;-146.27;87.13;41832.31;5089211;28;20419;-72
2024/02/03 09:04:08;;;;;;;12.95;1.95;;;;;;;-146.27;87.83;41872.09;5090560;28;20035;-72
2024/02/03 09:06:33;;;;;;;10.48;1.80;;;;;;;-146.27;88.17;41864.13;5081481;28;20392;-72
2024/02/03 09:08:59;;;;;;;11.52;1.95;;;;;;;-146.27;88.35;41876.06;5069146;28;20033;-73
2024/02/03 09:11:24;;;;;;;12.32;2.20;;;;;;;-146.27;87.97;41840.28;5065161;28;20021;-73
2024/02/03 09:13:49;;;;;;;6.18;1.52;;;;;;;-146.27;87.62;41818.41;5054557;28;20541;-73
2024/02/03 09:16:16;;;;;;;8.27;2.25;;;;;;;-146.27;87.49;41850.22;5062035;28;20051;-73
2024/02/03 09:18:41;;;;;;;7.40;1.70;;;;;;;-146.27;86.94;41764.72;5064978;28;20029;-73
2024/02/03 09:21:10;;;;;;;8.65;1.48;;;;;;;-146.27;87.14;41842.25;5068782;28;20490;-73
2024/02/03 09:23:40;;;;;;;9.07;1.90;;;;;;;-146.27;86.64;41820.38;5067294;28;20033;-75
2024/02/03 09:26:07;;;;;;;8.88;1.75;;;;;;;-146.27;85.51;41796.53;5065037;28;20376;-73
2024/02/03 09:28:32;;;;;;;7.15;1.63;;;;;;;-146.27;84.80;41780.63;5067383;28;20032;-73
2024/02/03 09:30:58;;;;;;;8.57;1.98;;;;;;;-146.27;84.79;41808.47;5067736;28;20111;-73
2024/02/03 09:33:23;;;;;;;10.73;1.60;;;;;;;-146.27;85.35;41862.16;5063619;28;20138;-73
2024/02/03 09:35:49;;;;;;;10.15;1.67;;;;;;;-146.27;84.99;41842.25;5066324;28;20059;-73
2024/02/03 09:38:14;;;;;;;8.98;1.60;;;;;;;-146.27;86.75;41868.09;5066331;28;20469;-73
2024/02/03 09:40:40;;;;;;;7.20;2.10;;;;;;;-146.27;87.53;41852.19;5066547;28;20586;-73
2024/02/03 09:43:06;;;;;;;6.75;1.60;;;;;;;-146.27;86.78;41794.53;5065344;28;20021;-73
2024/02/03 09:45:31;;;;;;;5.97;1.80;;;;;;;-146.27;86.86;41852.19;5066274;28;20024;-72
2024/02/03 09:47:59;;;;;;;6.25;1.50;;;;;;;-146.27;86.31;41794.53;5065477;28;20103;-72
2024/02/03 09:50:25;;;;;;;5.40;1.23;;;;;;;-146.27;86.05;41820.38;5070300;28;20077;-72
2024/02/03 09:52:52;;;;;;;6.85;1.60;;;;;;;-146.27;86.16;41742.84;5066609;28;20381;-73
2024/02/03 09:55:18;;;;;;;12.18;2.00;;;;;;;-146.27;87.20;41796.53;5067847;28;20031;-73
2024/02/03 09:57:46;;;;;;;7.78;2.10;;;;;;;-146.27;86.30;41786.59;5065037;28;20397;-72
2024/02/03 10:00:12;;;;;;;7.13;1.92;;;;;;;-146.27;86.83;41846.25;5065464;28;20058;-73
2024/02/03 10:02:39;;;;;;;6.85;2.15;;;;;;;-146.27;86.60;41844.25;5069662;28;20029;-72
2024/02/03 10:05:06;;;;;;;7.13;1.83;;;;;;;-146.27;86.54;41758.75;5069073;28;20849;-71
2024/02/03 10:07:32;;;;;;;13.38;1.83;;;;;;;-146.27;87.26;41846.25;5069117;28;20024;-72
2024/02/03 10:10:08;;;;;;;6.00;1.48;;;;;;;-146.27;87.14;41768.69;5070412;28;20055;-73
2024/02/03 10:12:34;;;;;;;10.73;1.60;;;;;;;-146.27;87.86;41846.25;5072062;28;20153;-73
2024/02/03 10:15:07;;;;;;;4.50;1.50;;;;;;;-146.27;86.10;41792.56;5070670;28;20028;-74
2024/02/03 10:17:33;;;;;;;7.50;1.38;;;;;;;-146.27;85.70;41736.88;5068377;28;20479;-74
2024/02/03 10:19:58;;;;;;;8.38;1.92;;;;;;;-146.27;85.55;41776.63;5061688;28;20108;-74
2024/02/03 10:22:27;;;;;;;12.65;1.50;;;;;;;-146.27;86.70;41907.88;5058022;28;20025;-72
2024/02/03 10:25:06;;;;;;;8.50;1.52;;;;;;;-146.27;86.62;41927.75;5064027;28;20044;-71
2024/02/03 10:27:32;;;;;;;6.57;1.52;;;;;;;-146.27;86.33;41935.72;5058786;28;20119;-72
2024/02/03 10:29:57;;;;;;;8.55;1.60;;;;;;;-146.27;85.34;41925.78;5062454;28;20206;-73
2024/02/03 10:32:22;;;;;;;6.20;1.33;;;;;;;-146.27;85.34;41951.63;5054852;28;20064;-72
2024/02/03 10:34:51;;;;;;;9.55;1.83;;;;;;;-146.27;84.74;41959.56;5067462;28;20055;-70
2024/02/03 10:37:17;;;;;;;5.78;1.45;;;;;;;-146.27;86.32;42037.13;5066951;28;20042;-71
2024/02/03 10:39:44;;;;;;;8.25;1.65;;;;;;;-146.27;86.34;41969.53;5060825;28;20017;-70
2024/02/03 10:42:17;;;;;;;13.48;1.90;;;;;;;-146.27;85.99;41991.41;5059443;28;20036;-71
2024/02/03 10:44:48;;;;;;;3.33;1.30;;;;;;;-146.27;85.44;41967.53;5062819;28;20029;-71
2024/02/03 10:47:19;;;;;;;6.75;2.50;;;;;;;-146.27;85.17;41913.84;5067324;28;20155;-70
2024/02/03 10:49:45;;;;;;;6.63;1.70;;;;;;;-146.27;84.42;41963.56;5066254;28;20020;-72
2024/02/03 10:52:11;;;;;;;6.43;1.42;;;;;;;-146.27;84.73;42086.84;5063538;28;20154;-69
2024/02/03 10:54:38;;;;;;;11.73;1.92;;;;;;;-146.27;85.59;42098.78;5071034;28;20133;-71
2024/02/03 10:57:05;;;;;;;5.32;1.60;;;;;;;-146.27;85.25;42106.72;5062780;28;20039;-71
2024/02/03 10:59:31;;;;;;;9.20;1.73;;;;;;;-146.27;85.45;42059.00;5058375;28;20074;-71
2024/02/03 11:01:57;;;;;;;7.63;1.25;;;;;;;-146.27;86.10;42096.78;5069530;28;20028;-70
2024/02/03 11:04:23;;;;;;;9.95;1.80;;;;;;;-146.27;85.07;42029.19;5066340;28;20035;-71